Time;durP1;ratioP1;P1;durP2;ratioP2;P2;SDS_P1;SDS_P2;PMS_P1;PMS_P2;Temp;Humidity;BMP_temperature;BMP_pressure;BME280_temperature;BME280_humidity;BME280_pressure;Samples;Min_cycle;Max_cycle;Signal;HPM_P1;HPM_P2
2022/06/30 00:00:10;;;;;;;13.32;7.50;;;;;;;20.94;80.11;94864.78;5033635;28;20184;-78
2022/06/30 00:02:35;;;;;;;13.02;8.45;;;;;;;20.87;80.64;94853.59;5033590;28;20180;-78
2022/06/30 00:05:01;;;;;;;19.52;7.18;;;;;;;20.91;79.99;94857.34;5033441;28;20176;-78
2022/06/30 00:07:26;;;;;;;13.27;7.68;;;;;;;20.89;80.17;94864.84;5033451;28;20183;-78
2022/06/30 00:09:51;;;;;;;17.75;7.72;;;;;;;20.89;80.24;94864.84;5033416;28;20236;-78
2022/06/30 00:12:17;;;;;;;13.82;8.18;;;;;;;20.82;80.31;94846.41;5033310;28;20179;-78
2022/06/30 00:14:42;;;;;;;15.30;8.43;;;;;;;20.94;80.18;94862.91;5033433;28;20179;-78
2022/06/30 00:17:08;;;;;;;14.48;8.60;;;;;;;20.92;79.80;94864.28;5033199;28;20217;-78
2022/06/30 00:19:34;;;;;;;17.15;8.70;;;;;;;20.88;80.08;94865.91;5033128;28;20176;-78
2022/06/30 00:22:00;;;;;;;13.85;7.80;;;;;;;20.88;79.67;94864.03;5033189;28;20180;-78
2022/06/30 00:24:25;;;;;;;19.15;8.52;;;;;;;20.88;79.66;94868.56;5032912;28;20183;-78
2022/06/30 00:26:51;;;;;;;10.27;7.43;;;;;;;20.83;80.13;94863.25;5032618;28;20175;-78
2022/06/30 00:29:16;;;;;;;12.52;6.97;;;;;;;20.72;80.31;94857.16;5033211;28;20172;-78
2022/06/30 00:31:42;;;;;;;13.65;7.28;;;;;;;20.61;80.59;94861.72;5033803;28;20205;-78
2022/06/30 00:34:07;;;;;;;13.68;7.85;;;;;;;20.60;81.09;94852.09;5033401;28;20171;-78
2022/06/30 00:36:33;;;;;;;13.48;6.60;;;;;;;20.57;81.01;94849.19;5033463;28;20175;-78
2022/06/30 00:38:58;;;;;;;8.02;5.60;;;;;;;20.51;80.08;94850.25;5032794;28;20678;-78
2022/06/30 00:41:23;;;;;;;11.30;7.30;;;;;;;20.46;80.52;94860.97;5033190;28;20187;-78
2022/06/30 00:43:49;;;;;;;9.40;5.80;;;;;;;20.37;80.85;94850.03;5015409;28;20207;-78
2022/06/30 00:46:15;;;;;;;11.15;5.80;;;;;;;20.30;80.86;94847.63;5033090;28;20663;-78
2022/06/30 00:48:42;;;;;;;11.60;6.30;;;;;;;20.23;81.42;94854.34;5033225;28;20655;-78
2022/06/30 00:51:08;;;;;;;8.90;5.97;;;;;;;20.23;81.38;94838.28;5032908;28;20603;-79
2022/06/30 00:53:36;;;;;;;17.45;10.18;;;;;;;20.30;81.07;94857.53;5033024;28;20207;-79
2022/06/30 00:56:05;;;;;;;27.52;17.30;;;;;;;20.31;81.33;94851.09;5033014;28;20672;-78
2022/06/30 00:58:43;;;;;;;21.80;15.30;;;;;;;20.36;81.28;94856.47;5032537;28;20702;-79
2022/06/30 01:01:11;;;;;;;10.45;7.90;;;;;;;20.31;81.04;94857.25;5032891;28;20679;-79
2022/06/30 01:03:37;;;;;;;14.55;7.22;;;;;;;20.36;80.31;94853.78;5032654;28;20194;-79
2022/06/30 01:06:04;;;;;;;13.07;8.77;;;;;;;20.41;80.62;94847.63;5032295;28;20664;-78
2022/06/30 01:08:31;;;;;;;11.07;7.70;;;;;;;20.39;80.33;94845.22;5032896;28;20657;-79
2022/06/30 01:13:46;;;;;;;9.85;6.20;;;;;;;20.34;80.12;94834.53;5026530;28;20210;-79
2022/06/30 01:16:11;;;;;;;16.15;5.85;;;;;;;20.36;80.43;94840.41;5032366;28;20187;-79
2022/06/30 01:18:37;;;;;;;13.77;7.65;;;;;;;20.38;79.92;94846.28;5032399;28;20225;-79
2022/06/30 01:21:03;;;;;;;27.98;16.88;;;;;;;20.32;80.44;94847.38;5032529;28;20175;-79
2022/06/30 01:23:28;;;;;;;23.38;14.65;;;;;;;20.25;80.58;94844.94;5032383;28;20767;-79
2022/06/30 01:25:54;;;;;;;14.60;8.43;;;;;;;20.18;80.57;94844.44;5032903;28;20179;-79
2022/06/30 01:28:20;;;;;;;10.48;6.43;;;;;;;20.21;80.46;94843.09;5032549;28;20171;-78
2022/06/30 01:30:45;;;;;;;8.23;5.45;;;;;;;20.21;80.53;94843.09;5032284;28;20226;-78
2022/06/30 01:33:11;;;;;;;52.10;29.35;;;;;;;20.21;80.42;94843.09;5033028;28;20160;-79
2022/06/30 01:35:37;;;;;;;22.80;14.18;;;;;;;20.14;80.38;94834.56;5032512;28;20175;-79
2022/06/30 01:38:02;;;;;;;8.65;5.32;;;;;;;20.12;79.99;94850.88;5031557;28;20683;-79
2022/06/30 01:40:30;;;;;;;8.00;5.18;;;;;;;19.98;80.01;94827.66;5032006;28;20183;-78
2022/06/30 01:42:56;;;;;;;19.63;11.68;;;;;;;20.03;80.23;94832.97;5031793;28;20171;-79
2022/06/30 01:45:22;;;;;;;20.13;12.13;;;;;;;20.09;80.25;94839.91;5032201;28;20213;-79
2022/06/30 01:47:49;;;;;;;15.90;6.78;;;;;;;20.11;80.32;94835.09;5031630;28;20259;-79
2022/06/30 01:50:17;;;;;;;7.78;5.60;;;;;;;20.10;79.68;94841.50;5031761;28;20537;-78
2022/06/30 01:52:43;;;;;;;11.13;7.20;;;;;;;20.08;79.88;94844.44;5031684;28;20578;-79
2022/06/30 01:55:09;;;;;;;11.93;7.07;;;;;;;20.03;80.41;94841.00;5031911;28;20163;-79
2022/06/30 01:57:36;;;;;;;12.38;5.53;;;;;;;19.84;80.35;94822.84;5031513;28;20710;-79
2022/06/30 02:00:05;;;;;;;8.38;6.40;;;;;;;19.85;80.06;94811.09;5014243;28;20207;-79
2022/06/30 02:02:30;;;;;;;8.63;5.50;;;;;;;20.03;80.24;94844.47;5031451;28;20234;-79
2022/06/30 02:04:55;;;;;;;10.55;5.18;;;;;;;19.95;80.47;94829.78;5031705;28;20611;-79
2022/06/30 02:07:23;;;;;;;7.50;5.07;;;;;;;20.04;80.08;94842.59;5031674;28;20625;-79
2022/06/30 02:09:52;;;;;;;9.98;5.30;;;;;;;20.09;80.00;94845.25;5031786;28;20176;-79
2022/06/30 02:15:03;;;;;;;7.68;5.70;;;;;;;20.09;79.33;94843.38;5032102;28;20190;-79
2022/06/30 02:17:28;;;;;;;6.07;5.18;;;;;;;20.11;79.15;94848.47;5031683;28;20207;-79
2022/06/30 02:19:54;;;;;;;17.35;11.13;;;;;;;19.90;79.53;94815.63;5031853;28;20190;-79
2022/06/30 02:22:19;;;;;;;7.65;5.93;;;;;;;20.04;79.43;94839.94;5032002;28;20659;-79
2022/06/30 02:24:45;;;;;;;24.13;14.07;;;;;;;20.01;79.86;94848.47;5031680;28;20172;-79
2022/06/30 02:27:10;;;;;;;18.30;11.00;;;;;;;20.01;79.63;94848.47;5031600;28;21017;-79
2022/06/30 02:29:36;;;;;;;35.67;21.27;;;;;;;20.00;79.77;94849.53;5031611;28;20188;-79
2022/06/30 02:32:01;;;;;;;25.90;16.17;;;;;;;20.01;80.01;94851.94;5031506;28;20180;-79
2022/06/30 02:34:28;;;;;;;25.90;14.57;;;;;;;20.01;79.79;94851.94;5031615;28;20198;-79
2022/06/30 02:36:54;;;;;;;16.85;9.23;;;;;;;19.99;79.46;94851.41;5031297;28;20190;-79
2022/06/30 02:39:20;;;;;;;20.77;9.30;;;;;;;19.95;79.76;94855.72;5030350;28;20334;-79
2022/06/30 02:41:45;;;;;;;9.10;6.30;;;;;;;19.96;79.74;94852.78;5024338;28;20281;-78
2022/06/30 02:44:11;;;;;;;10.27;6.75;;;;;;;19.79;80.34;94851.44;5026137;28;20160;-78
2022/06/30 02:46:36;;;;;;;9.65;6.20;;;;;;;19.72;80.63;94848.25;5020061;28;20191;-78
2022/06/30 02:49:01;;;;;;;8.35;5.63;;;;;;;19.66;80.36;94839.41;5021891;28;20187;-78
2022/06/30 02:51:27;;;;;;;9.32;5.20;;;;;;;19.69;80.84;94854.13;5025891;28;20249;-79
2022/06/30 02:53:52;;;;;;;9.05;5.63;;;;;;;19.68;80.55;94849.84;5020710;28;20180;-79
2022/06/30 02:56:18;;;;;;;11.32;6.18;;;;;;;19.66;80.53;94857.31;5023940;28;20181;-79
2022/06/30 02:58:43;;;;;;;8.80;5.25;;;;;;;19.71;80.71;94860.00;5024037;28;20723;-79
2022/06/30 03:01:08;;;;;;;10.10;6.13;;;;;;;19.33;81.04;94814.03;5024087;28;20200;-79
2022/06/30 03:03:34;;;;;;;8.90;5.63;;;;;;;19.53;81.07;94848.78;5023911;28;20203;-79
2022/06/30 03:05:59;;;;;;;9.13;6.07;;;;;;;19.57;81.42;94849.03;5023426;28;20206;-79
2022/06/30 03:08:25;;;;;;;9.15;5.95;;;;;;;19.55;81.25;94841.28;5024123;28;20168;-78
2022/06/30 03:10:50;;;;;;;8.88;5.82;;;;;;;;;;5019135;28;20180;-79
2022/06/30 03:13:15;;;;;;;9.27;6.03;;;;;;;19.53;81.42;94842.63;5025566;28;20204;-79
2022/06/30 03:15:41;;;;;;;9.30;5.47;;;;;;;;;;5032282;28;20171;-78
2022/06/30 03:18:06;;;;;;;7.35;5.55;;;;;;;19.70;81.29;94848.50;5032816;28;20574;-79
2022/06/30 03:20:32;;;;;;;11.90;4.72;;;;;;;19.71;80.88;94844.78;5019291;28;20176;-79
2022/06/30 03:22:57;;;;;;;9.85;5.60;;;;;;;19.60;80.82;94824.47;5018362;28;20693;-78
2022/06/30 03:25:22;;;;;;;11.77;5.10;;;;;;;19.67;80.91;94851.72;5019033;28;20611;-78
2022/06/30 03:27:48;;;;;;;11.90;6.72;;;;;;;19.63;81.51;94834.63;5029516;28;20750;-79
2022/06/30 03:30:13;;;;;;;36.88;19.08;;;;;;;19.83;81.10;94852.50;5027931;28;20267;-79
2022/06/30 03:32:39;;;;;;;7.93;6.35;;;;;;;19.95;81.00;94853.84;5028294;28;20261;-79
2022/06/30 03:35:05;;;;;;;20.80;12.63;;;;;;;20.07;81.22;94852.72;5023066;28;20180;-79
2022/06/30 03:37:31;;;;;;;14.82;6.07;;;;;;;20.21;80.18;94848.44;5024408;28;20183;-78
2022/06/30 03:39:57;;;;;;;8.15;4.80;;;;;;;20.32;80.22;94848.13;5023779;28;20232;-79
2022/06/30 03:42:23;;;;;;;12.32;6.35;;;;;;;20.11;79.30;94800.34;5025464;28;20210;-79
2022/06/30 03:44:49;;;;;;;9.45;7.50;;;;;;;20.60;79.22;94857.44;5019057;28;20522;-79
2022/06/30 03:47:15;;;;;;;9.77;6.93;;;;;;;20.77;77.98;94854.44;5031763;28;20183;-79
2022/06/30 03:49:40;;;;;;;9.52;5.20;;;;;;;20.95;77.15;94853.00;5020679;28;20176;-79
2022/06/30 03:52:06;;;;;;;12.05;5.40;;;;;;;21.01;76.71;94836.69;5023716;28;20180;-79
2022/06/30 03:54:32;;;;;;;12.27;5.43;;;;;;;21.31;75.54;94850.97;5021767;28;20179;-79
2022/06/30 03:56:57;;;;;;;9.55;5.00;;;;;;;21.42;74.39;94849.84;5025853;28;20183;-79
2022/06/30 03:59:22;;;;;;;14.30;5.18;;;;;;;21.42;74.47;94837.25;5020259;28;20200;-79
2022/06/30 04:01:48;;;;;;;10.07;5.75;;;;;;;21.71;75.01;94864.06;5024996;28;20188;-79
2022/06/30 04:04:13;;;;;;;13.32;4.70;;;;;;;21.84;72.40;94862.66;5023122;28;20190;-79
2022/06/30 04:06:39;;;;;;;17.20;9.68;;;;;;;22.04;72.81;94864.38;5022306;28;20657;-78
2022/06/30 04:09:04;;;;;;;13.80;6.20;;;;;;;22.14;70.22;94864.31;5026776;28;20168;-78
2022/06/30 04:11:30;;;;;;;13.93;5.63;;;;;;;22.24;69.65;94863.38;5008858;28;20188;-78
2022/06/30 04:13:55;;;;;;;11.65;4.72;;;;;;;22.18;68.25;94846.53;5021867;28;20280;-78
2022/06/30 04:16:21;;;;;;;7.82;4.40;;;;;;;22.32;68.55;94868.13;5013301;28;20195;-78
2022/06/30 04:18:46;;;;;;;12.70;5.20;;;;;;;22.43;68.45;94869.63;5026696;28;20223;-78
2022/06/30 04:21:13;;;;;;;9.07;4.20;;;;;;;22.61;67.92;94874.25;5033383;28;20180;-78
2022/06/30 04:23:38;;;;;;;8.80;4.80;;;;;;;22.82;67.27;94875.69;5024626;28;20218;-78
2022/06/30 04:26:04;;;;;;;12.88;6.25;;;;;;;22.99;66.88;94869.03;5024014;28;20219;-78
2022/06/30 04:28:29;;;;;;;12.52;4.93;;;;;;;22.99;65.95;94840.28;5024057;28;20230;-78
2022/06/30 04:33:39;;;;;;;7.93;4.88;;;;;;;23.62;66.49;94872.97;5024059;28;20585;-78
2022/06/30 04:36:04;;;;;;;9.60;4.60;;;;;;;23.69;64.29;94872.66;5027602;28;20176;-78
2022/06/30 04:38:30;;;;;;;13.30;4.80;;;;;;;24.00;65.80;94872.94;5029004;28;20224;-79
2022/06/30 04:43:39;;;;;;;15.23;5.30;;;;;;;24.52;63.85;94876.38;5032853;28;20242;-79
2022/06/30 04:46:05;;;;;;;27.45;13.05;;;;;;;24.53;62.40;94868.00;5032857;28;20207;-79
2022/06/30 04:48:30;;;;;;;14.65;8.32;;;;;;;24.81;62.64;94876.91;5032448;28;20233;-79
2022/06/30 04:50:56;;;;;;;22.98;11.77;;;;;;;24.92;62.05;94872.91;5032541;28;20171;-79
2022/06/30 04:53:21;;;;;;;14.57;9.15;;;;;;;25.10;61.70;94877.38;5026787;28;20173;-78
2022/06/30 04:55:47;;;;;;;13.07;7.90;;;;;;;25.28;61.44;94878.34;5022694;28;20207;-79
2022/06/30 04:58:12;;;;;;;15.77;8.20;;;;;;;25.50;60.39;94888.41;5026566;28;20208;-79
2022/06/30 05:00:37;;;;;;;13.82;8.25;;;;;;;25.76;60.45;94886.75;5024113;28;20183;-78
2022/06/30 05:03:03;;;;;;;10.55;7.13;;;;;;;25.94;59.33;94879.59;5024288;28;20180;-79
2022/06/30 05:05:28;;;;;;;12.85;8.27;;;;;;;26.14;58.51;94887.19;5022757;28;20181;-79
2022/06/30 05:07:54;;;;;;;13.95;7.55;;;;;;;26.50;59.21;94873.59;5028133;28;20172;-79
2022/06/30 05:10:20;;;;;;;13.48;6.78;;;;;;;26.86;57.56;94878.06;5026734;28;20176;-79
2022/06/30 05:12:45;;;;;;;15.85;6.63;;;;;;;27.11;57.31;94881.97;5031960;28;20180;-79
2022/06/30 05:15:10;;;;;;;11.02;6.43;;;;;;;27.35;58.63;94885.84;5030312;28;20182;-79
2022/06/30 05:17:36;;;;;;;16.17;6.43;;;;;;;27.61;56.67;94866.16;5026908;28;20208;-79
2022/06/30 05:20:02;;;;;;;18.35;8.80;;;;;;;28.04;55.93;94887.81;5025321;28;20249;-80
2022/06/30 05:22:28;;;;;;;25.23;7.35;;;;;;;28.39;54.82;94875.03;5032267;28;20185;-80
2022/06/30 05:27:37;;;;;;;16.95;7.38;;;;;;;29.01;51.97;94840.06;5032216;28;20202;-80
2022/06/30 05:30:03;;;;;;;21.20;8.10;;;;;;;29.52;51.19;94866.09;5006590;28;20188;-80
2022/06/30 05:32:29;;;;;;;19.25;9.23;;;;;;;29.82;49.32;94895.91;5015174;28;20192;-80
2022/06/30 05:34:54;;;;;;;15.93;7.63;;;;;;;30.05;50.51;94894.47;5023656;28;20506;-80
2022/06/30 05:37:20;;;;;;;15.52;7.88;;;;;;;29.77;50.08;94850.75;5031085;28;20171;-80
2022/06/30 05:39:45;;;;;;;13.38;8.38;;;;;;;30.09;48.93;94895.41;5024616;28;20259;-80
2022/06/30 05:42:10;;;;;;;15.88;10.10;;;;;;;29.92;48.96;94896.31;5031768;28;20786;-81
2022/06/30 05:44:36;;;;;;;16.00;7.80;;;;;;;29.96;49.51;94891.03;5031980;28;20168;-77
2022/06/30 05:47:01;;;;;;;19.63;8.65;;;;;;;30.05;49.41;94899.91;5032319;28;20229;-78
2022/06/30 05:49:27;;;;;;;19.05;7.63;;;;;;;29.96;49.98;94904.59;5032273;28;20163;-78
2022/06/30 05:51:52;;;;;;;14.40;7.57;;;;;;;29.72;49.64;94907.16;5032040;28;20176;-78
2022/06/30 05:54:18;;;;;;;16.55;7.80;;;;;;;29.64;50.57;94898.75;5031705;28;20252;-79
2022/06/30 05:56:44;;;;;;;13.25;8.05;;;;;;;29.53;52.07;94883.19;5032339;28;20176;-79
2022/06/30 05:59:10;;;;;;;16.55;7.05;;;;;;;29.56;51.72;94905.03;5032259;28;20195;-79
2022/06/30 06:01:35;;;;;;;14.40;7.85;;;;;;;29.35;50.13;94906.09;5032247;28;20172;-78
2022/06/30 06:04:01;;;;;;;12.80;7.20;;;;;;;29.04;52.47;94893.66;5032257;28;20167;-79
2022/06/30 06:06:26;;;;;;;13.98;7.32;;;;;;;29.07;51.33;94903.84;5026403;28;20172;-79
2022/06/30 06:08:52;;;;;;;22.40;7.25;;;;;;;29.17;52.98;94913.53;5028085;28;20180;-78
2022/06/30 06:11:18;;;;;;;16.85;7.63;;;;;;;29.23;51.58;94904.09;5031794;28;20171;-78
2022/06/30 06:13:43;;;;;;;10.18;6.53;;;;;;;29.20;52.89;94902.81;5032164;28;20168;-78
2022/06/30 06:16:08;;;;;;;16.65;8.23;;;;;;;29.16;52.12;94906.50;5032273;28;20171;-78
2022/06/30 06:18:34;;;;;;;13.38;6.88;;;;;;;29.34;51.51;94913.44;5031248;28;20224;-79
2022/06/30 06:21:00;;;;;;;17.48;7.30;;;;;;;29.42;50.90;94914.53;5031630;28;20172;-79
2022/06/30 06:23:25;;;;;;;14.07;7.28;;;;;;;29.48;51.04;94918.66;5031578;28;20182;-78
2022/06/30 06:25:51;;;;;;;14.80;6.10;;;;;;;29.39;50.38;94916.00;5034305;28;20184;-78
2022/06/30 06:31:00;;;;;;;15.30;7.85;;;;;;;29.44;52.02;94912.28;5035290;28;20659;-78
2022/06/30 06:33:26;;;;;;;15.95;8.02;;;;;;;29.54;49.46;94904.56;5035377;28;20172;-79
2022/06/30 06:35:51;;;;;;;17.02;6.75;;;;;;;29.59;50.20;94917.13;5035196;28;20186;-78
2022/06/30 06:38:17;;;;;;;10.90;6.45;;;;;;;29.50;51.50;94913.69;5034816;28;20219;-79
2022/06/30 06:40:43;;;;;;;14.40;6.43;;;;;;;29.46;51.57;94908.13;5034037;28;20191;-79
2022/06/30 06:43:08;;;;;;;13.38;6.18;;;;;;;29.42;50.73;94874.63;5033814;28;20176;-79
2022/06/30 06:45:33;;;;;;;9.23;6.38;;;;;;;29.70;49.66;94901.25;5033819;28;20548;-79
2022/06/30 06:47:59;;;;;;;15.90;7.15;;;;;;;29.45;49.14;94882.13;5033835;28;20250;-78
2022/06/30 06:50:24;;;;;;;11.20;6.40;;;;;;;29.50;50.26;94887.34;5034167;28;20314;-79
2022/06/30 06:52:50;;;;;;;12.32;6.45;;;;;;;29.60;50.16;94878.81;5033966;28;20797;-79
2022/06/30 06:55:20;;;;;;;10.25;6.30;;;;;;;29.92;49.67;94898.22;5034489;28;20180;-78
2022/06/30 06:57:46;;;;;;;13.68;6.53;;;;;;;30.27;48.80;94896.81;5034735;28;20582;-78
2022/06/30 07:00:12;;;;;;;8.85;6.22;;;;;;;30.32;50.76;94896.59;5034616;28;20168;-78
2022/06/30 07:02:38;;;;;;;14.20;6.18;;;;;;;30.23;47.97;94897.81;5034635;28;20191;-79
2022/06/30 07:05:05;;;;;;;11.27;6.57;;;;;;;30.15;48.79;94890.53;5035524;28;20633;-80
2022/06/30 07:07:30;;;;;;;11.07;6.20;;;;;;;30.24;51.32;94883.91;5034871;28;20175;-80
2022/06/30 07:09:56;;;;;;;12.95;6.72;;;;;;;30.46;51.28;94892.78;5034989;28;20230;-79
2022/06/30 07:12:21;;;;;;;7.85;5.68;;;;;;;30.69;50.05;94883.16;5034978;28;20583;-79
2022/06/30 07:14:46;;;;;;;8.65;6.03;;;;;;;30.99;47.26;94883.75;5035204;28;20254;-79
2022/06/30 07:17:12;;;;;;;9.00;5.75;;;;;;;31.14;49.12;94879.59;5035255;28;20202;-79
2022/06/30 07:19:37;;;;;;;12.70;6.15;;;;;;;31.18;46.77;94877.75;5040145;28;20191;-79
2022/06/30 07:22:06;;;;;;;13.10;6.68;;;;;;;31.18;46.01;94880.50;5034737;28;20259;-79
2022/06/30 07:24:31;;;;;;;12.90;6.72;;;;;;;31.03;46.14;94885.47;5034382;28;20164;-78
2022/06/30 07:26:56;;;;;;;15.18;5.88;;;;;;;30.98;48.54;94888.38;5034218;28;20191;-80
2022/06/30 07:29:22;;;;;;;6.75;5.45;;;;;;;30.93;47.91;94888.63;5034152;28;20257;-77
2022/06/30 07:31:47;;;;;;;18.80;6.18;;;;;;;31.20;48.37;94883.66;5027701;28;20187;-75
2022/06/30 07:34:13;;;;;;;9.07;5.45;;;;;;;31.48;48.50;94879.13;5033094;28;20230;-77
2022/06/30 07:36:41;;;;;;;11.25;5.60;;;;;;;31.73;46.13;94883.41;5032702;28;20211;-77
2022/06/30 07:39:06;;;;;;;11.57;5.38;;;;;;;31.83;46.61;94885.63;5032103;28;20233;-76
2022/06/30 07:41:32;;;;;;;9.07;4.93;;;;;;;31.89;46.76;94888.91;5032771;28;20271;-77
2022/06/30 07:43:58;;;;;;;8.63;5.10;;;;;;;31.85;45.54;94883.34;5031661;28;20183;-76
2022/06/30 07:46:23;;;;;;;16.17;5.05;;;;;;;31.85;46.09;94877.91;5032332;28;20175;-77
2022/06/30 07:48:50;;;;;;;10.82;5.00;;;;;;;31.83;44.33;94882.91;5032630;28;20176;-76
2022/06/30 07:51:17;;;;;;;7.60;4.82;;;;;;;31.76;46.52;94881.91;5032103;28;20183;-75
2022/06/30 07:53:42;;;;;;;9.65;4.65;;;;;;;31.64;45.91;94885.47;5031510;28;20180;-75
2022/06/30 07:56:08;;;;;;;7.07;5.18;;;;;;;31.38;46.33;94879.56;5031955;28;20758;-77
2022/06/30 07:58:34;;;;;;;9.43;4.88;;;;;;;31.56;45.99;94872.75;5032285;28;20248;-76
2022/06/30 08:01:00;;;;;;;24.42;6.25;;;;;;;31.76;46.67;94887.34;5031979;28;20171;-76
2022/06/30 08:03:26;;;;;;;12.30;4.57;;;;;;;31.90;42.61;94884.25;5031566;28;20247;-76
2022/06/30 08:05:51;;;;;;;9.23;4.07;;;;;;;31.91;44.02;94881.19;5033347;28;20263;-77
2022/06/30 08:08:17;;;;;;;6.93;4.80;;;;;;;32.03;46.29;94880.34;5033694;28;20680;-77
2022/06/30 08:10:42;;;;;;;9.55;4.70;;;;;;;32.18;47.06;94883.16;5033502;28;20180;-77
2022/06/30 08:13:08;;;;;;;9.65;4.22;;;;;;;32.38;43.67;94867.72;5032247;28;20673;-77
2022/06/30 08:15:33;;;;;;;7.32;4.30;;;;;;;32.71;42.00;94888.47;5032646;28;20652;-77
2022/06/30 08:18:03;;;;;;;8.65;4.63;;;;;;;32.41;41.86;94863.53;5032837;28;20187;-76
2022/06/30 08:20:29;;;;;;;11.80;4.65;;;;;;;32.52;44.45;94876.28;5032787;28;20160;-76
2022/06/30 08:22:54;;;;;;;8.73;4.80;;;;;;;32.56;42.87;94874.44;5032391;28;20187;-77
2022/06/30 08:25:20;;;;;;;9.73;4.88;;;;;;;32.50;42.17;94859.50;5026097;28;20226;-76
2022/06/30 08:27:45;;;;;;;10.23;4.88;;;;;;;32.57;43.26;94867.06;5026873;28;20644;-77
2022/06/30 08:30:11;;;;;;;8.20;4.38;;;;;;;32.51;43.71;94869.28;5031913;28;20171;-78
2022/06/30 08:32:36;;;;;;;12.68;5.22;;;;;;;32.61;44.46;94867.94;5012066;28;20168;-78
2022/06/30 08:35:02;;;;;;;5.07;4.38;;;;;;;32.83;41.73;94869.31;5032081;28;20211;-78
2022/06/30 08:37:27;;;;;;;12.23;5.05;;;;;;;32.93;41.66;94874.25;5032043;28;20194;-80
2022/06/30 08:42:40;;;;;;;8.48;5.45;;;;;;;33.01;40.82;94873.28;5031179;28;20848;-79
2022/06/30 08:45:19;;;;;;;6.95;4.68;;;;;;;32.84;41.94;94885.34;5025525;28;20200;-78
2022/06/30 08:47:46;;;;;;;10.30;5.63;;;;;;;32.81;42.41;94861.47;5031447;28;20171;-78
2022/06/30 08:50:14;;;;;;;8.20;5.13;;;;;;;32.27;41.09;94876.75;5032102;28;20180;-78
2022/06/30 08:52:53;;;;;;;11.20;5.85;;;;;;;31.59;40.13;94885.66;5032049;28;20195;-78
2022/06/30 08:55:30;;;;;;;12.52;5.05;;;;;;;31.18;41.88;94875.03;5024682;28;20183;-78
2022/06/30 08:58:02;;;;;;;13.30;4.88;;;;;;;30.90;41.81;94874.88;5029677;28;20195;-78
2022/06/30 09:00:28;;;;;;;8.27;5.10;;;;;;;30.77;45.58;94868.66;5029902;28;21186;-79
2022/06/30 09:02:53;;;;;;;20.63;5.57;;;;;;;31.08;43.23;94870.84;5031482;28;20672;-79
2022/06/30 09:05:19;;;;;;;9.13;4.72;;;;;;;31.33;43.92;94871.63;5014102;28;20187;-78
2022/06/30 09:07:44;;;;;;;7.22;5.15;;;;;;;31.52;42.49;94869.13;5032079;28;20168;-78
2022/06/30 09:10:10;;;;;;;14.32;5.35;;;;;;;31.70;41.85;94873.19;5033015;28;20629;-78
2022/06/30 09:12:35;;;;;;;10.60;5.25;;;;;;;31.77;42.95;94870.66;5034864;28;20565;-78
2022/06/30 09:15:04;;;;;;;10.93;5.82;;;;;;;31.77;42.79;94864.44;5032203;28;20190;-79
2022/06/30 09:17:30;;;;;;;8.35;5.35;;;;;;;31.74;40.44;94862.41;5032407;28;20163;-78
2022/06/30 09:20:10;;;;;;;11.32;5.20;;;;;;;31.58;42.73;94861.50;5031872;28;20179;-79
2022/06/30 09:22:38;;;;;;;10.10;5.22;;;;;;;31.55;41.07;94848.59;5032448;28;20211;-81
2022/06/30 09:25:09;;;;;;;10.07;4.70;;;;;;;31.48;42.04;94849.16;5032099;28;20183;-78
2022/06/30 09:27:40;;;;;;;12.25;4.63;;;;;;;31.43;47.88;94855.63;5030466;28;20176;-76
2022/06/30 09:30:14;;;;;;;10.85;5.43;;;;;;;31.35;47.58;94848.38;5031077;28;20171;-76
2022/06/30 09:32:56;;;;;;;8.73;4.50;;;;;;;31.28;46.43;94850.09;5030641;28;20168;-76
2022/06/30 09:35:26;;;;;;;11.88;4.65;;;;;;;31.14;46.08;94850.44;5030516;28;20167;-78
2022/06/30 09:38:08;;;;;;;12.52;5.05;;;;;;;30.94;45.43;94833.09;5031092;28;20201;-79
2022/06/30 09:41:01;;;;;;;12.02;4.95;;;;;;;30.90;47.39;94839.53;5031833;28;20715;-79
2022/06/30 09:43:37;;;;;;;11.10;4.38;;;;;;;30.91;43.57;94850.06;5024245;28;20310;-80
2022/06/30 09:46:04;;;;;;;5.78;3.42;;;;;;;30.68;42.92;94836.13;5031675;28;20405;-78
2022/06/30 09:48:32;;;;;;;8.27;4.05;;;;;;;30.61;42.25;94840.56;5009576;28;20168;-78
2022/06/30 09:50:59;;;;;;;7.82;4.30;;;;;;;30.47;44.12;94835.38;5031698;28;20179;-78
2022/06/30 09:53:25;;;;;;;5.28;3.95;;;;;;;30.43;44.89;94839.13;5031568;28;20660;-78
2022/06/30 09:55:50;;;;;;;7.47;4.85;;;;;;;30.22;44.68;94829.09;5031542;28;20202;-78
2022/06/30 09:58:35;;;;;;;6.00;3.90;;;;;;;29.99;44.61;94820.56;5031740;28;20211;-80
2022/06/30 10:01:01;;;;;;;5.20;3.75;;;;;;;29.99;42.20;94817.06;5035926;28;20179;-79
2022/06/30 10:03:27;;;;;;;10.45;3.72;;;;;;;30.10;43.63;94831.78;5036178;28;20172;-79
2022/06/30 10:06:13;;;;;;;8.70;3.67;;;;;;;30.03;43.02;94831.53;5035733;28;20182;-80
2022/06/30 10:08:39;;;;;;;6.43;3.30;;;;;;;29.80;42.18;94795.00;5035802;28;20254;-80
2022/06/30 10:11:06;;;;;;;7.65;3.47;;;;;;;30.01;41.46;94825.66;5027846;28;20625;-79
2022/06/30 10:13:39;;;;;;;4.43;3.05;;;;;;;30.02;43.07;94828.03;5035773;28;20237;-79
2022/06/30 10:16:07;;;;;;;8.15;3.67;;;;;;;30.14;45.42;94821.03;5035192;28;20203;-79
2022/06/30 10:18:37;;;;;;;6.97;3.95;;;;;;;30.15;43.81;94822.63;5034608;28;20217;-79
2022/06/30 10:21:04;;;;;;;8.65;4.32;;;;;;;30.25;45.05;94825.72;5033355;28;20557;-79
2022/06/30 10:23:30;;;;;;;7.47;3.83;;;;;;;30.32;40.73;94811.59;5036759;28;20468;-78
2022/06/30 10:25:56;;;;;;;5.07;3.28;;;;;;;30.33;41.77;94824.84;5039064;28;20186;-78
2022/06/30 10:28:23;;;;;;;4.82;3.45;;;;;;;30.24;42.97;94794.25;5034541;28;20168;-79
2022/06/30 10:31:06;;;;;;;5.55;3.25;;;;;;;30.44;41.72;94816.25;5034061;28;20233;-79
2022/06/30 10:33:48;;;;;;;6.03;3.05;;;;;;;30.36;39.72;94799.69;5036325;28;20237;-78
2022/06/30 10:36:31;;;;;;;8.25;2.80;;;;;;;30.28;38.51;94803.31;5017480;28;20643;-78
2022/06/30 10:39:29;;;;;;;5.30;3.17;;;;;;;30.26;40.75;94813.75;5034850;28;20231;-78
2022/06/30 10:41:54;;;;;;;6.82;2.90;;;;;;;30.29;40.83;94806.81;5021214;28;20215;-78
2022/06/30 10:44:23;;;;;;;3.35;2.50;;;;;;;30.37;39.41;94814.88;5021741;28;20192;-78
2022/06/30 10:46:48;;;;;;;3.35;2.65;;;;;;;30.41;39.09;94801.41;5026847;28;20533;-79
2022/06/30 10:49:15;;;;;;;5.43;3.08;;;;;;;30.45;37.64;94805.03;5023374;28;20172;-79
2022/06/30 10:51:41;;;;;;;3.78;2.83;;;;;;;30.33;38.15;94781.38;5032922;28;20649;-79
2022/06/30 10:54:08;;;;;;;6.80;3.10;;;;;;;30.43;37.96;94795.66;5025998;28;20199;-78
2022/06/30 10:56:48;;;;;;;3.67;2.40;;;;;;;30.44;35.43;94797.25;5025644;28;20171;-79
2022/06/30 10:59:15;;;;;;;4.57;2.22;;;;;;;30.45;34.79;94798.81;5016330;28;20199;-77
2022/06/30 11:02:12;;;;;;;4.60;2.83;;;;;;;30.38;35.78;94791.22;5026630;28;20171;-78
2022/06/30 11:04:41;;;;;;;4.32;2.70;;;;;;;30.32;39.41;94778.97;5007199;28;20177;-78
2022/06/30 11:07:11;;;;;;;6.95;2.50;;;;;;;30.35;38.23;94783.75;5010102;28;20171;-78
2022/06/30 11:09:50;;;;;;;5.13;2.47;;;;;;;30.39;37.57;94782.72;5005702;28;20197;-78
2022/06/30 11:12:18;;;;;;;4.60;2.70;;;;;;;30.47;35.33;94766.66;5004248;28;20749;-78
2022/06/30 11:14:48;;;;;;;5.93;2.80;;;;;;;30.49;35.57;94772.53;5018218;28;20676;-79
2022/06/30 11:17:15;;;;;;;6.30;3.15;;;;;;;30.51;36.58;94778.44;5008921;28;20730;-79
2022/06/30 11:19:41;;;;;;;4.05;2.70;;;;;;;30.44;37.02;94742.88;5000308;28;20706;-82
2022/06/30 11:22:14;;;;;;;6.70;3.25;;;;;;;30.62;36.55;94766.00;4997562;28;20165;-81
2022/06/30 11:24:42;;;;;;;6.10;3.15;;;;;;;30.57;38.09;94760.81;5023610;28;20565;-80
2022/06/30 11:27:18;;;;;;;4.53;2.60;;;;;;;30.60;36.09;94754.69;5022034;28;20180;-82
2022/06/30 11:29:46;;;;;;;3.40;2.97;;;;;;;30.59;37.26;94756.63;5028108;28;20677;-82
2022/06/30 11:32:12;;;;;;;3.88;2.67;;;;;;;30.55;36.26;94752.97;5017024;28;20230;-81
2022/06/30 11:34:40;;;;;;;3.30;2.58;;;;;;;30.60;34.91;94760.94;5029577;28;20209;-80
2022/06/30 11:37:07;;;;;;;4.25;2.53;;;;;;;30.56;35.54;94759.22;5025505;28;20674;-80
2022/06/30 11:39:33;;;;;;;2.80;2.33;;;;;;;30.33;37.00;94728.94;5033322;28;20227;-81
2022/06/30 11:42:06;;;;;;;5.90;2.55;;;;;;;30.51;37.39;94749.38;5025002;28;20182;-81
2022/06/30 11:44:40;;;;;;;5.97;2.55;;;;;;;30.47;36.00;94740.28;5022660;28;20167;-81
2022/06/30 11:47:16;;;;;;;4.28;2.60;;;;;;;30.49;37.02;94738.00;5021701;28;20176;-81